createdAt,value
2018-04-11T00:00:47.228Z,29.97
2018-04-11T00:03:14.689Z,23.50
2018-04-11T00:05:42.148Z,24.07
2018-04-11T00:08:09.680Z,25.77
2018-04-11T00:10:37.153Z,20.90
2018-04-11T00:13:04.712Z,22.90
2018-04-11T00:15:32.204Z,25.47
2018-04-11T00:17:59.678Z,22.17
2018-04-11T00:20:27.137Z,28.10
2018-04-11T00:22:54.617Z,26.93
2018-04-11T00:25:22.163Z,27.40
2018-04-11T00:27:49.627Z,25.83
2018-04-11T00:30:17.122Z,27.80
2018-04-11T00:32:44.595Z,23.93
2018-04-11T00:35:12.100Z,22.00
2018-04-11T00:37:39.567Z,27.77
2018-04-11T00:40:07.034Z,36.53
2018-04-11T00:42:34.545Z,29.90
2018-04-11T00:45:02.073Z,38.70
2018-04-11T00:47:29.555Z,30.20
2018-04-11T00:49:57.050Z,32.23
2018-04-11T00:52:24.524Z,30.93
2018-04-11T00:54:52.012Z,26.20
2018-04-11T00:57:19.508Z,30.90
2018-04-11T00:59:47.011Z,24.67
2018-04-11T01:02:14.465Z,25.70
2018-04-11T01:04:41.959Z,27.30
2018-04-11T01:07:09.430Z,27.27
2018-04-11T01:09:36.945Z,33.40
2018-04-11T01:12:04.551Z,25.37
2018-04-11T01:14:32.016Z,30.70
2018-04-11T01:16:59.502Z,31.87
2018-04-11T01:19:27.097Z,31.10
2018-04-11T01:21:54.560Z,25.80
2018-04-11T01:24:22.201Z,33.77
2018-04-11T01:26:49.673Z,29.93
2018-04-11T01:29:17.140Z,26.13
2018-04-11T01:31:44.711Z,24.97
2018-04-11T01:34:12.169Z,25.10
2018-04-11T01:36:39.685Z,18.20
2018-04-11T01:39:07.296Z,22.93
2018-04-11T01:41:34.773Z,24.63
2018-04-11T01:44:02.250Z,23.37
2018-04-11T01:46:29.729Z,23.00
2018-04-11T01:48:57.188Z,28.97
2018-04-11T01:51:24.688Z,30.40
2018-04-11T01:53:52.202Z,24.70
2018-04-11T01:56:19.698Z,29.60
2018-04-11T01:58:47.188Z,29.83
2018-04-11T02:01:14.672Z,35.47
2018-04-11T02:03:42.128Z,33.93
2018-04-11T02:06:09.603Z,27.17
2018-04-11T02:08:37.093Z,30.13
2018-04-11T02:11:04.558Z,31.37
2018-04-11T02:13:32.030Z,29.30
2018-04-11T02:15:59.524Z,30.63
2018-04-11T02:18:26.991Z,37.70
2018-04-11T02:20:54.465Z,32.57
2018-04-11T02:23:21.955Z,42.50
2018-04-11T02:25:49.429Z,36.50
2018-04-11T02:28:16.901Z,34.53
2018-04-11T02:30:44.405Z,33.30
2018-04-11T02:33:11.881Z,27.77
2018-04-11T02:35:39.344Z,27.83
2018-04-11T02:38:06.832Z,26.70
2018-04-11T02:40:34.300Z,28.20
2018-04-11T02:43:01.776Z,29.30
2018-04-11T02:45:29.270Z,26.60
2018-04-11T02:47:56.733Z,32.23
2018-04-11T02:50:24.227Z,29.77
2018-04-11T02:52:51.736Z,32.03
2018-04-11T02:55:19.237Z,24.53
2018-04-11T02:57:46.706Z,30.23
2018-04-11T03:00:14.193Z,34.20
2018-04-11T03:02:41.706Z,27.17
2018-04-11T03:05:09.269Z,31.40
2018-04-11T03:07:36.746Z,29.33
2018-04-11T03:10:04.287Z,33.77
2018-04-11T03:12:31.767Z,39.00
2018-04-11T03:14:59.237Z,33.00
2018-04-11T03:17:26.727Z,37.07
2018-04-11T03:19:54.210Z,36.83
2018-04-11T03:22:21.772Z,40.47
2018-04-11T03:24:49.266Z,35.30
2018-04-11T03:27:16.747Z,35.20
2018-04-11T03:29:44.245Z,35.43
2018-04-11T03:32:11.745Z,37.83
2018-04-11T03:34:39.226Z,32.87
2018-04-11T03:37:06.695Z,38.07
2018-04-11T03:39:34.192Z,34.40
2018-04-11T03:42:01.662Z,37.93
2018-04-11T03:44:29.183Z,43.97
2018-04-11T03:46:56.677Z,37.47
2018-04-11T03:49:24.198Z,37.17
2018-04-11T03:51:51.672Z,44.33
2018-04-11T03:54:19.140Z,44.50
2018-04-11T03:56:46.677Z,35.57
2018-04-11T03:59:14.170Z,34.97
2018-04-11T04:01:41.713Z,38.87
2018-04-11T04:04:09.185Z,41.50
2018-04-11T04:06:36.681Z,41.50
2018-04-11T04:09:04.141Z,36.30
2018-04-11T04:11:31.628Z,36.13
2018-04-11T04:14:10.969Z,40.07
2018-04-11T04:16:50.452Z,36.20
2018-04-11T04:19:29.829Z,33.30
2018-04-11T04:21:57.296Z,38.53
2018-04-11T04:24:24.780Z,34.47
2018-04-11T04:26:52.360Z,37.37
2018-04-11T04:29:19.839Z,43.03
2018-04-11T04:31:47.309Z,37.90
2018-04-11T04:34:14.792Z,33.73
2018-04-11T04:36:42.280Z,42.23
2018-04-11T04:39:09.753Z,40.90
2018-04-11T04:41:37.252Z,46.07
2018-04-11T04:44:04.708Z,42.27
2018-04-11T04:46:32.177Z,33.03
2018-04-11T04:48:59.674Z,45.40
2018-04-11T04:51:27.149Z,45.57
2018-04-11T04:53:54.643Z,39.50
2018-04-11T04:56:22.128Z,40.90
2018-04-11T04:58:49.600Z,44.57
2018-04-11T05:01:17.093Z,40.73
2018-04-11T05:03:44.721Z,38.93
2018-04-11T05:06:12.212Z,40.80
2018-04-11T05:08:39.685Z,36.83
2018-04-11T05:11:07.141Z,40.93
2018-04-11T05:13:34.728Z,51.03
2018-04-11T05:16:02.190Z,37.73
2018-04-11T05:18:29.765Z,34.87
2018-04-11T05:20:57.257Z,46.70
2018-04-11T05:23:24.734Z,35.40
2018-04-11T05:25:52.212Z,42.27
2018-04-11T05:28:19.696Z,40.10
2018-04-11T05:30:47.190Z,34.57
2018-04-11T05:33:14.661Z,32.83
2018-04-11T05:35:42.148Z,35.07
2018-04-11T05:38:09.704Z,44.93
2018-04-11T05:40:37.176Z,40.70
2018-04-11T05:43:04.688Z,39.50
2018-04-11T05:45:32.276Z,36.53
2018-04-11T05:47:59.764Z,32.67
2018-04-11T05:50:27.336Z,44.83
2018-04-11T05:52:54.809Z,47.47
2018-04-11T05:55:22.361Z,43.73
2018-04-11T05:57:49.852Z,42.07
2018-04-11T06:00:17.328Z,50.27
2018-04-11T06:02:44.797Z,44.67
2018-04-11T06:05:12.307Z,43.00
2018-04-11T06:07:39.768Z,40.80
2018-04-11T06:10:07.267Z,44.00
2018-04-11T06:12:34.768Z,48.70
2018-04-11T06:15:02.242Z,42.93
2018-04-11T06:17:29.715Z,43.70
2018-04-11T06:19:57.299Z,44.70
2018-04-11T06:22:24.797Z,43.97
2018-04-11T06:24:52.266Z,40.90
2018-04-11T06:27:19.745Z,33.30
2018-04-11T06:29:47.238Z,36.13
2018-04-11T06:32:14.748Z,29.30
2018-04-11T06:34:42.242Z,31.93
2018-04-11T06:37:09.721Z,34.13
2018-04-11T06:39:37.268Z,35.10
2018-04-11T06:42:04.876Z,35.10
2018-04-11T06:44:32.356Z,36.80
2018-04-11T06:46:59.837Z,38.10
2018-04-11T06:49:27.345Z,33.30
2018-04-11T06:51:54.893Z,36.13
2018-04-11T06:54:22.360Z,36.83
2018-04-11T06:56:49.820Z,31.70
2018-04-11T06:59:17.304Z,30.47
2018-04-11T07:01:44.765Z,38.87
2018-04-11T07:04:12.220Z,39.00
2018-04-11T07:06:39.813Z,31.37
2018-04-11T07:09:07.273Z,31.40
2018-04-11T07:11:34.768Z,35.27
2018-04-11T07:14:02.251Z,33.93
2018-04-11T07:16:29.729Z,31.50
2018-04-11T07:18:57.243Z,33.03
2018-04-11T07:21:24.723Z,27.47
2018-04-11T07:23:52.204Z,30.87
2018-04-11T07:26:19.865Z,27.10
2018-04-11T07:28:47.329Z,30.07
2018-04-11T07:31:14.787Z,34.57
2018-04-11T07:33:42.361Z,29.30
2018-04-11T07:36:09.876Z,25.63
2018-04-11T07:38:37.357Z,31.13
2018-04-11T07:41:04.824Z,38.70
2018-04-11T07:43:32.304Z,29.77
2018-04-11T07:46:00.682Z,28.20
2018-04-11T07:48:28.186Z,27.73
2018-04-11T07:50:55.705Z,33.23
2018-04-11T07:53:23.190Z,30.57
2018-04-11T07:55:50.683Z,33.87
2018-04-11T07:58:18.166Z,21.37
2018-04-11T08:00:45.635Z,44.60
2018-04-11T08:03:13.131Z,34.67
2018-04-11T08:05:40.584Z,31.70
2018-04-11T08:08:08.058Z,31.87
2018-04-11T08:10:35.629Z,34.13
2018-04-11T08:13:03.104Z,32.23
2018-04-11T08:15:30.571Z,28.80
2018-04-11T08:17:58.096Z,30.83
2018-04-11T08:20:25.555Z,21.67
2018-04-11T08:22:53.078Z,22.70
2018-04-11T08:25:20.580Z,28.53
2018-04-11T08:27:48.105Z,26.20
2018-04-11T08:30:15.589Z,26.67
2018-04-11T08:32:43.053Z,33.80
2018-04-11T08:35:10.612Z,25.50
2018-04-11T08:37:38.091Z,31.60
2018-04-11T08:40:05.678Z,27.40
2018-04-11T08:42:33.234Z,26.70
2018-04-11T08:45:00.708Z,26.30
2018-04-11T08:47:28.190Z,32.63
2018-04-11T08:49:55.764Z,33.17
2018-04-11T08:52:23.230Z,29.27
2018-04-11T08:54:50.706Z,27.63
2018-04-11T08:57:18.256Z,29.83
2018-04-11T08:59:45.722Z,29.10
2018-04-11T09:02:13.213Z,26.40
2018-04-11T09:04:40.719Z,36.33
2018-04-11T09:07:08.231Z,23.00
2018-04-11T09:09:35.742Z,25.40
2018-04-11T09:12:03.216Z,25.73
2018-04-11T09:14:30.694Z,25.90
2018-04-11T09:16:58.197Z,27.07
2018-04-11T09:19:25.665Z,27.50
2018-04-11T09:21:53.237Z,30.57
2018-04-11T09:24:20.746Z,26.30
2018-04-11T09:26:48.218Z,28.77
2018-04-11T09:29:15.700Z,20.00
2018-04-11T09:31:43.189Z,20.27
2018-04-11T09:34:10.700Z,24.60
2018-04-11T09:36:38.734Z,21.50
2018-04-11T09:39:06.225Z,18.80
2018-04-11T09:41:33.688Z,19.30
2018-04-11T09:44:01.168Z,34.50
2018-04-11T09:46:28.659Z,25.60
2018-04-11T09:48:56.122Z,14.93
2018-04-11T09:51:23.753Z,21.63
2018-04-11T09:53:51.226Z,21.93
2018-04-11T09:56:18.696Z,21.23
2018-04-11T09:58:46.260Z,22.63
2018-04-11T10:01:18.771Z,17.80
2018-04-11T10:03:46.248Z,25.03
2018-04-11T10:06:13.844Z,26.20
2018-04-11T10:08:42.194Z,29.67
2018-04-11T10:11:09.661Z,22.53
2018-04-11T10:13:37.191Z,21.43
2018-04-11T10:16:04.767Z,25.80
2018-04-11T10:18:32.252Z,18.83
2018-04-11T10:20:59.744Z,27.37
2018-04-11T10:23:27.256Z,34.80
2018-04-11T10:25:54.724Z,34.30
2018-04-11T10:28:22.299Z,26.00
2018-04-11T10:30:49.756Z,27.30
2018-04-11T10:33:17.223Z,24.13
2018-04-11T10:35:44.721Z,23.97
2018-04-11T10:38:12.222Z,25.10
2018-04-11T10:40:39.741Z,29.53
2018-04-11T10:43:07.296Z,26.60
2018-04-11T10:45:34.848Z,23.40
2018-04-11T10:48:02.310Z,26.60
2018-04-11T10:50:29.777Z,25.43
2018-04-11T10:52:57.328Z,34.57
2018-04-11T10:55:24.800Z,24.60
2018-04-11T10:57:52.296Z,26.13
2018-04-11T11:00:19.774Z,29.67
2018-04-11T11:02:47.264Z,34.77
2018-04-11T11:05:14.766Z,25.50
2018-04-11T11:07:42.288Z,31.73
2018-04-11T11:10:09.747Z,24.50
2018-04-11T11:12:37.249Z,24.47
2018-04-11T11:15:04.793Z,23.13
2018-04-11T11:17:32.272Z,27.83
2018-04-11T11:20:01.598Z,26.10
2018-04-11T11:22:29.134Z,33.93
2018-04-11T11:24:56.624Z,25.20
2018-04-11T11:27:24.118Z,42.73
2018-04-11T11:29:51.592Z,25.77
2018-04-11T11:32:19.209Z,27.83
2018-04-11T11:34:46.721Z,31.83
2018-04-11T11:37:14.369Z,33.07
2018-04-11T11:39:41.881Z,26.77
2018-04-11T11:42:09.456Z,28.50
2018-04-11T11:44:36.917Z,34.47
2018-04-11T11:47:04.409Z,33.43
2018-04-11T11:49:31.950Z,36.77
2018-04-11T11:51:59.442Z,26.27
2018-04-11T11:54:26.970Z,30.37
2018-04-11T11:56:54.472Z,29.80
2018-04-11T11:59:21.945Z,36.20
2018-04-11T12:01:49.438Z,24.70
2018-04-11T12:04:16.913Z,32.00
2018-04-11T12:06:44.402Z,28.73
2018-04-11T12:09:11.951Z,36.00
2018-04-11T12:11:39.492Z,29.00
2018-04-11T12:14:07.020Z,39.70
2018-04-11T12:16:34.493Z,37.23
2018-04-11T12:19:01.961Z,33.63
2018-04-11T12:21:29.506Z,33.33
2018-04-11T12:23:57.102Z,87.20
2018-04-11T12:26:24.613Z,35.70
2018-04-11T12:28:52.115Z,35.50
2018-04-11T12:31:19.585Z,31.47
2018-04-11T12:33:47.103Z,30.73
2018-04-11T12:36:14.599Z,39.00
2018-04-11T12:38:42.066Z,31.70
2018-04-11T12:41:09.611Z,35.00
2018-04-11T12:43:37.135Z,35.77
2018-04-11T12:46:04.628Z,36.80
2018-04-11T12:48:32.141Z,32.00
2018-04-11T12:50:59.600Z,32.50
2018-04-11T12:53:27.077Z,48.77
2018-04-11T12:55:54.589Z,34.00
2018-04-11T12:58:22.088Z,35.63
2018-04-11T13:00:49.552Z,35.73
2018-04-11T13:03:17.044Z,40.80
2018-04-11T13:05:44.539Z,35.10
2018-04-11T13:08:12.035Z,33.23
2018-04-11T13:10:39.580Z,36.70
2018-04-11T13:13:07.137Z,38.93
2018-04-11T13:15:34.661Z,40.73
2018-04-11T13:18:02.122Z,38.07
2018-04-11T13:20:29.751Z,37.80
2018-04-11T13:22:57.260Z,33.90
2018-04-11T13:25:24.762Z,38.73
2018-04-11T13:27:52.289Z,38.77
2018-04-11T13:30:19.781Z,36.30
2018-04-11T13:32:47.245Z,40.60
2018-04-11T13:35:14.750Z,43.23
2018-04-11T13:37:42.234Z,44.17
2018-04-11T13:40:09.809Z,35.27
2018-04-11T13:42:37.369Z,39.63
2018-04-11T13:45:04.888Z,33.73
2018-04-11T13:47:32.369Z,52.00
2018-04-11T13:49:59.873Z,39.27
2018-04-11T13:52:27.336Z,39.83
2018-04-11T13:54:54.848Z,42.40
2018-04-11T13:57:22.341Z,35.33
2018-04-11T13:59:49.856Z,36.33
2018-04-11T14:02:17.333Z,40.00
2018-04-11T14:04:44.796Z,35.20
2018-04-11T14:07:12.351Z,46.30
2018-04-11T14:09:39.819Z,39.80
2018-04-11T14:12:07.296Z,45.30
2018-04-11T14:14:34.770Z,40.90
2018-04-11T14:17:02.245Z,45.57
2018-04-11T14:19:29.741Z,41.33
2018-04-11T14:21:57.204Z,46.90
2018-04-11T14:24:24.691Z,43.40
2018-04-11T14:26:52.157Z,40.80
2018-04-11T14:29:19.633Z,43.40
2018-04-11T14:31:47.124Z,40.80
2018-04-11T14:34:14.606Z,35.80
2018-04-11T14:36:42.081Z,52.10
2018-04-11T14:39:09.552Z,37.83
2018-04-11T14:41:37.065Z,41.37
2018-04-11T14:44:04.530Z,34.23
2018-04-11T14:46:32.028Z,37.40
2018-04-11T14:48:59.574Z,38.67
2018-04-11T14:51:27.085Z,36.87
2018-04-11T14:53:54.614Z,37.90
2018-04-11T14:56:22.165Z,38.93
2018-04-11T14:58:49.664Z,38.67
2018-04-11T15:01:17.170Z,45.20
2018-04-11T15:03:44.786Z,37.63
2018-04-11T15:06:12.308Z,32.33
2018-04-11T15:08:39.794Z,39.40
2018-04-11T15:11:07.258Z,44.90
2018-04-11T15:13:34.753Z,35.10
2018-04-11T15:16:02.229Z,34.40
2018-04-11T15:18:29.791Z,35.47
2018-04-11T15:20:57.301Z,30.97
2018-04-11T15:23:24.780Z,32.57
2018-04-11T15:25:52.364Z,37.87
2018-04-11T15:28:19.857Z,32.63
2018-04-11T15:30:47.317Z,30.93
2018-04-11T15:33:14.849Z,33.23
2018-04-11T15:35:42.408Z,40.10
2018-04-11T15:38:09.889Z,31.70
2018-04-11T15:40:37.359Z,29.47
2018-04-11T15:43:04.845Z,34.13
2018-04-11T15:45:32.340Z,38.17
2018-04-11T15:47:59.820Z,38.70
2018-04-11T15:50:28.532Z,34.83
2018-04-11T15:52:56.079Z,36.77
2018-04-11T15:55:23.648Z,36.63
2018-04-11T15:57:51.134Z,35.27
2018-04-11T16:00:18.607Z,30.17
2018-04-11T16:02:46.069Z,31.83
2018-04-11T16:05:13.580Z,37.53
2018-04-11T16:07:41.136Z,34.47
2018-04-11T16:10:08.680Z,37.07
2018-04-11T16:12:36.306Z,37.60
2018-04-11T16:15:03.785Z,34.43
2018-04-11T16:17:31.271Z,31.67
2018-04-11T16:19:58.780Z,35.80
2018-04-11T16:22:26.281Z,43.53
2018-04-11T16:24:53.795Z,39.33
2018-04-11T16:27:21.273Z,31.53
2018-04-11T16:29:48.839Z,27.97
2018-04-11T16:32:16.369Z,32.03
2018-04-11T16:34:43.840Z,39.50
2018-04-11T16:37:11.304Z,32.90
2018-04-11T16:39:38.881Z,37.10
2018-04-11T16:42:06.370Z,34.80
2018-04-11T16:44:33.842Z,45.13
2018-04-11T16:47:01.341Z,36.47
2018-04-11T16:49:28.929Z,39.90
2018-04-11T16:51:56.409Z,31.73
2018-04-11T16:54:23.911Z,31.07
2018-04-11T16:56:51.504Z,34.67
2018-04-11T16:59:19.007Z,32.00
2018-04-11T17:01:46.525Z,33.67
2018-04-11T17:04:14.049Z,31.27
2018-04-11T17:06:41.600Z,27.70
2018-04-11T17:09:09.162Z,24.83
2018-04-11T17:11:36.626Z,31.60
2018-04-11T17:14:04.089Z,38.23
2018-04-11T17:16:31.581Z,31.67
2018-04-11T17:18:59.052Z,35.43
2018-04-11T17:21:38.336Z,37.70
2018-04-11T17:24:17.640Z,41.00
2018-04-11T17:26:56.980Z,32.10
2018-04-11T17:29:36.457Z,29.83
2018-04-11T17:32:03.954Z,35.23
2018-04-11T17:34:31.449Z,31.13
2018-04-11T17:36:58.950Z,29.80
2018-04-11T17:39:26.465Z,33.60
2018-04-11T17:41:54.034Z,31.70
2018-04-11T17:44:21.496Z,38.93
2018-04-11T17:46:48.993Z,46.30
2018-04-11T17:49:16.465Z,36.83
2018-04-11T17:51:43.930Z,34.13
2018-04-11T17:54:11.441Z,38.73
2018-04-11T17:56:38.910Z,38.00
2018-04-11T17:59:06.383Z,33.37
2018-04-11T18:01:33.990Z,49.27
2018-04-11T18:04:01.459Z,39.83
2018-04-11T18:06:28.919Z,39.73
2018-04-11T18:08:56.495Z,49.87
2018-04-11T18:11:23.972Z,39.03
2018-04-11T18:13:51.439Z,40.97
2018-04-11T18:16:18.965Z,38.03
2018-04-11T18:18:46.446Z,49.33
2018-04-11T18:21:13.907Z,42.77
2018-04-11T18:23:41.430Z,41.50
2018-04-11T18:26:08.899Z,41.17
2018-04-11T18:28:36.441Z,41.67
2018-04-11T18:31:03.946Z,46.30
2018-04-11T18:33:31.430Z,46.73
2018-04-11T18:35:58.900Z,33.90
2018-04-11T18:38:26.421Z,41.10
2018-04-11T18:40:53.928Z,33.90
2018-04-11T18:43:21.418Z,44.80
2018-04-11T18:45:48.949Z,42.83
2018-04-11T18:48:16.419Z,31.97
2018-04-11T18:50:43.906Z,42.63
2018-04-11T18:53:11.419Z,43.03
2018-04-11T18:55:38.985Z,40.27
2018-04-11T18:58:06.470Z,42.40
2018-04-11T19:00:34.065Z,43.60
2018-04-11T19:03:01.469Z,42.20
2018-04-11T19:05:29.013Z,36.17
2018-04-11T19:07:56.491Z,47.33
2018-04-11T19:10:24.002Z,42.80
2018-04-11T19:12:51.506Z,46.03
2018-04-11T19:15:18.986Z,38.20
2018-04-11T19:17:46.466Z,42.93
2018-04-11T19:20:13.941Z,46.87
2018-04-11T19:22:41.436Z,46.03
2018-04-11T19:25:09.058Z,38.10
2018-04-11T19:27:36.520Z,47.03
2018-04-11T19:30:03.992Z,42.37
2018-04-11T19:32:31.488Z,44.43
2018-04-11T19:34:58.995Z,43.10
2018-04-11T19:37:26.461Z,39.10
2018-04-11T19:39:53.930Z,44.43
2018-04-11T19:42:21.434Z,43.33
2018-04-11T19:44:48.890Z,40.03
2018-04-11T19:47:16.362Z,40.97
2018-04-11T19:49:43.840Z,45.10
2018-04-11T19:54:45.303Z,50.77
2018-04-11T19:57:12.885Z,48.53
2018-04-11T19:59:40.350Z,52.17
2018-04-11T20:02:07.848Z,51.80
2018-04-11T20:04:35.329Z,46.17
2018-04-11T20:07:02.809Z,47.87
2018-04-11T20:09:30.368Z,45.33
2018-04-11T20:11:57.928Z,44.70
2018-04-11T20:14:25.403Z,46.23
2018-04-11T20:16:52.894Z,50.70
2018-04-11T20:19:20.384Z,49.70
2018-04-11T20:21:47.861Z,46.30
2018-04-11T20:24:15.348Z,33.67
2018-04-11T20:26:42.870Z,53.30
2018-04-11T20:29:10.321Z,49.53
2018-04-11T20:31:37.782Z,46.87
2018-04-11T20:34:05.274Z,44.67
2018-04-11T20:36:32.748Z,48.70
2018-04-11T20:39:00.266Z,44.70
2018-04-11T20:41:27.760Z,42.57
2018-04-11T20:43:55.229Z,55.37
2018-04-11T20:46:22.688Z,48.67
2018-04-11T20:48:50.184Z,38.40
2018-04-11T20:51:17.646Z,52.27
2018-04-11T20:53:45.125Z,48.57
2018-04-11T20:56:12.671Z,48.23
2018-04-11T20:58:40.136Z,46.30
2018-04-11T21:01:07.609Z,36.23
2018-04-11T21:03:35.104Z,40.10
2018-04-11T21:06:02.585Z,42.67
2018-04-11T21:08:30.169Z,42.00
2018-04-11T21:10:57.764Z,35.73
2018-04-11T21:13:25.237Z,39.10
2018-04-11T21:15:52.702Z,45.03
2018-04-11T21:18:20.266Z,43.30
2018-04-11T21:20:47.701Z,44.53
2018-04-11T21:23:15.175Z,37.23
2018-04-11T21:25:42.718Z,40.67
2018-04-11T21:28:10.174Z,49.63
2018-04-11T21:30:37.657Z,39.67
2018-04-11T21:33:05.149Z,42.80
2018-04-11T21:35:32.625Z,37.97
2018-04-11T21:38:00.101Z,40.73
2018-04-11T21:40:27.603Z,43.73
2018-04-11T21:42:55.092Z,38.40
2018-04-11T21:45:22.560Z,39.17
2018-04-11T21:47:50.185Z,31.07
2018-04-11T21:50:17.757Z,41.17
2018-04-11T21:52:45.334Z,46.93
2018-04-11T21:55:12.884Z,42.27
2018-04-11T21:57:40.384Z,41.03
2018-04-11T22:00:07.860Z,36.20
2018-04-11T22:02:35.355Z,40.60
2018-04-11T22:05:02.822Z,36.73
2018-04-11T22:07:30.314Z,40.47
2018-04-11T22:09:57.854Z,40.33
2018-04-11T22:12:25.324Z,35.53
2018-04-11T22:14:52.834Z,40.63
2018-04-11T22:17:20.338Z,31.20
2018-04-11T22:19:47.860Z,34.57
2018-04-11T22:22:15.353Z,40.23
2018-04-11T22:24:42.838Z,39.60
2018-04-11T22:27:10.313Z,37.07
2018-04-11T22:29:37.886Z,35.77
2018-04-11T22:32:05.442Z,31.50
2018-04-11T22:34:32.908Z,40.07
2018-04-11T22:37:00.408Z,35.23
2018-04-11T22:39:27.886Z,33.70
2018-04-11T22:41:55.361Z,32.00
2018-04-11T22:44:22.856Z,39.33
2018-04-11T22:46:50.329Z,36.40
2018-04-11T22:49:17.844Z,33.17
2018-04-11T22:51:45.332Z,26.90
2018-04-11T22:54:12.797Z,35.63
2018-04-11T22:56:40.261Z,34.07
2018-04-11T22:59:07.856Z,43.17
2018-04-11T23:01:35.348Z,37.03
2018-04-11T23:04:02.949Z,41.33
2018-04-11T23:06:30.477Z,38.53
2018-04-11T23:08:57.944Z,37.67
2018-04-11T23:11:25.413Z,33.23
2018-04-11T23:13:52.992Z,39.27
2018-04-11T23:16:20.484Z,37.57
2018-04-11T23:18:47.967Z,32.27
2018-04-11T23:21:15.428Z,30.43
2018-04-11T23:23:42.903Z,38.93
2018-04-11T23:26:10.388Z,35.80
2018-04-11T23:28:37.884Z,28.37
2018-04-11T23:31:05.384Z,33.20
2018-04-11T23:33:32.844Z,35.90
2018-04-11T23:36:00.352Z,34.27
2018-04-11T23:38:27.852Z,50.57
2018-04-11T23:40:55.327Z,36.77
2018-04-11T23:43:22.794Z,42.90
2018-04-11T23:45:50.386Z,43.60
2018-04-11T23:48:17.853Z,43.13
2018-04-11T23:50:45.321Z,26.63
2018-04-11T23:53:12.869Z,35.57
2018-04-11T23:55:40.353Z,35.97
2018-04-11T23:58:07.922Z,30.20
